Time;durP1;ratioP1;P1;durP2;ratioP2;P2;SDS_P1;SDS_P2;PMS_P1;PMS_P2;Temp;Humidity;BMP_temperature;BMP_pressure;BME280_temperature;BME280_humidity;BME280_pressure;Samples;Min_cycle;Max_cycle;Signal;HPM_P1;HPM_P2
2023/07/16 00:02:21;;;;;;;;;;;;;;;22.29;60.40;98902.72;5091972;28;19919;-45
2023/07/16 00:04:46;;;;;;;;;;;;;;;22.41;60.21;98889.03;5092084;28;19918;-45
2023/07/16 00:07:12;;;;;;;;;;;;;;;22.56;59.85;98883.63;5090752;28;19912;-46
2023/07/16 00:09:37;;;;;;;;;;;;;;;22.64;59.12;98892.97;5092269;28;19939;-45
2023/07/16 00:12:03;;;;;;;;;;;;;;;22.72;58.98;98884.38;5090627;28;19916;-45
2023/07/16 00:14:28;;;;;;;;;;;;;;;22.79;58.62;98887.53;5092102;28;20427;-46
2023/07/16 00:16:54;;;;;;;;;;;;;;;22.81;58.19;98877.34;5091933;28;19912;-45
2023/07/16 00:19:19;;;;;;;;;;;;;;;22.89;57.81;98870.63;5095324;28;20003;-45
2023/07/16 00:21:45;;;;;;;;;;;;;;;22.89;57.69;98868.75;5095833;28;19916;-45
2023/07/16 00:24:10;;;;;;;;;;;;;;;22.84;57.13;98874.13;5094432;28;19912;-46
2023/07/16 00:26:35;;;;;;;;;;;;;;;22.78;57.06;98883.28;5095718;28;19916;-45
2023/07/16 00:29:01;;;;;;;;;;;;;;;22.73;56.91;98867.22;5095580;28;20338;-46
2023/07/16 00:31:26;;;;;;;;;;;;;;;22.68;56.91;98870.75;5095582;28;19912;-46
2023/07/16 00:33:52;;;;;;;;;;;;;;;22.71;57.02;98869.38;5094239;28;19923;-45
2023/07/16 00:36:17;;;;;;;;;;;;;;;22.77;56.41;98872.84;5095308;28;19968;-45
2023/07/16 00:38:43;;;;;;;;;;;;;;;22.76;56.38;98877.41;5094224;28;19916;-45
2023/07/16 00:41:08;;;;;;;;;;;;;;;22.78;56.15;98867.22;5095375;28;20296;-46
2023/07/16 00:43:34;;;;;;;;;;;;;;;22.79;56.05;98876.81;5095421;28;20007;-46
2023/07/16 00:45:59;;;;;;;;;;;;;;;22.76;55.78;98874.72;5095314;28;20369;-46
2023/07/16 00:48:25;;;;;;;;;;;;;;;22.76;55.83;98876.56;5093973;28;19912;-45
2023/07/16 00:50:52;;;;;;;;;;;;;;;22.67;56.02;98877.16;5095453;28;19912;-45
2023/07/16 00:53:18;;;;;;;;;;;;;;;22.69;56.00;98874.22;5093894;28;20408;-45
2023/07/16 00:55:43;;;;;;;;;;;;;;;22.68;55.72;98875.31;5093875;28;19916;-45
2023/07/16 00:58:08;;;;;;;;;;;;;;;22.73;55.61;98881.41;5093822;28;19912;-45
2023/07/16 01:00:35;;;;;;;;;;;;;;;22.85;55.70;98894.47;5095044;28;19943;-45
2023/07/16 01:03:08;;;;;;;;;;;;;;;22.92;55.52;98888.81;5095016;28;19934;-45
2023/07/16 01:05:39;;;;;;;;;;;;;;;22.93;55.47;98891.19;5094992;28;19916;-45
2023/07/16 01:08:08;;;;;;;;;;;;;;;22.89;55.46;98875.97;5094912;28;19912;-45
2023/07/16 01:10:33;;;;;;;;;;;;;;;22.89;55.35;98867.94;5094809;28;19918;-45
2023/07/16 01:12:59;;;;;;;;;;;;;;;22.88;55.40;98887.78;5093501;28;19912;-45
2023/07/16 01:15:25;;;;;;;;;;;;;;;22.92;55.72;98886.94;5094754;28;19998;-45
2023/07/16 01:17:50;;;;;;;;;;;;;;;22.97;55.23;98885.31;5093432;28;19962;-45
2023/07/16 01:20:16;;;;;;;;;;;;;;;22.96;55.08;98873.81;5093339;28;20438;-46
2023/07/16 01:22:47;;;;;;;;;;;;;;;22.90;54.98;98869.56;5093340;28;19911;-45
2023/07/16 01:25:33;;;;;;;;;;;;;;;22.72;55.22;98881.69;5094558;28;19922;-46
2023/07/16 01:27:58;;;;;;;;;;;;;;;22.60;55.33;98890.03;5092655;28;19916;-45
2023/07/16 01:30:25;;;;;;;;;;;;;;;22.53;55.45;98882.28;5092754;28;20378;-45
2023/07/16 01:32:52;;;;;;;;;;;;;;;22.48;55.73;98868.97;5094425;28;19916;-45
2023/07/16 01:35:17;;;;;;;;;;;;;;;22.41;55.52;98881.81;5093052;28;19916;-45
2023/07/16 01:37:43;;;;;;;;;;;;;;;22.42;56.01;98871.94;5075936;28;19922;-45
2023/07/16 01:40:09;;;;;;;;;;;;;;;22.42;55.93;98879.97;5094267;28;19955;-45
2023/07/16 01:42:35;;;;;;;;;;;;;;;22.40;55.93;98876.75;5092987;28;19911;-46
2023/07/16 01:45:00;;;;;;;;;;;;;;;22.30;56.02;98875.72;5092928;28;19977;-46
2023/07/16 01:47:28;;;;;;;;;;;;;;;22.16;56.10;98876.53;5094172;28;19912;-45
2023/07/16 01:49:54;;;;;;;;;;;;;;;22.17;56.38;98868.22;5092845;28;19915;-45
2023/07/16 01:52:20;;;;;;;;;;;;;;;22.17;56.38;98878.91;5093988;28;19912;-45
2023/07/16 01:54:45;;;;;;;;;;;;;;;22.14;56.50;98890.97;5094015;28;19955;-46
2023/07/16 01:57:11;;;;;;;;;;;;;;;22.22;56.88;98897.63;5092650;28;19911;-45
2023/07/16 01:59:36;;;;;;;;;;;;;;;22.31;56.37;98895.22;5092638;28;19912;-45
2023/07/16 02:02:01;;;;;;;;;;;;;;;22.40;56.40;98888.25;5093859;28;20393;-45
2023/07/16 02:04:27;;;;;;;;;;;;;;;22.37;56.49;98890.66;5092550;28;19916;-45
2023/07/16 02:06:52;;;;;;;;;;;;;;;22.22;56.18;98881.59;5092472;28;19965;-45
2023/07/16 02:09:18;;;;;;;;;;;;;;;22.08;56.63;98876.00;5092460;28;20086;-45
2023/07/16 02:11:43;;;;;;;;;;;;;;;21.96;56.80;98872.03;5093606;28;20020;-45
2023/07/16 02:14:09;;;;;;;;;;;;;;;21.95;56.94;98871.22;5092321;28;19920;-45
2023/07/16 02:16:34;;;;;;;;;;;;;;;21.96;56.80;98874.72;5093650;28;19912;-45
2023/07/16 02:19:00;;;;;;;;;;;;;;;21.95;56.96;98879.22;5093809;28;19912;-46
2023/07/16 02:21:25;;;;;;;;;;;;;;;21.97;56.95;98884.31;5093499;28;19951;-45
2023/07/16 02:23:51;;;;;;;;;;;;;;;22.00;56.82;98873.09;5092152;28;19912;-45
2023/07/16 02:26:16;;;;;;;;;;;;;;;22.07;57.15;98873.59;5093594;28;19999;-45
2023/07/16 02:28:41;;;;;;;;;;;;;;;22.02;56.90;98863.72;5093396;28;20393;-45
2023/07/16 02:31:07;;;;;;;;;;;;;;;22.05;57.09;98867.72;5091899;28;20305;-46
2023/07/16 02:33:32;;;;;;;;;;;;;;;22.09;56.81;98879.47;5093251;28;20308;-46
2023/07/16 02:35:58;;;;;;;;;;;;;;;22.16;56.99;98877.31;5091715;28;20444;-47
2023/07/16 02:38:23;;;;;;;;;;;;;;;22.22;56.56;98873.56;5091919;28;20404;-46
2023/07/16 02:40:48;;;;;;;;;;;;;;;22.17;56.44;98876.25;5092611;28;19950;-46
2023/07/16 02:43:14;;;;;;;;;;;;;;;22.10;56.49;98878.41;5093060;28;19912;-45
2023/07/16 02:45:40;;;;;;;;;;;;;;;22.00;56.41;98878.44;5093289;28;19912;-45
2023/07/16 02:48:06;;;;;;;;;;;;;;;21.83;56.84;98876.03;5091685;28;20274;-45
2023/07/16 02:50:37;;;;;;;;;;;;;;;21.81;56.91;98872.84;5092936;28;22246;-45
2023/07/16 02:53:06;;;;;;;;;;;;;;;21.81;57.06;98868.31;5092951;28;19912;-45
2023/07/16 02:55:32;;;;;;;;;;;;;;;22.26;57.55;98857.81;5092915;28;20016;-45
2023/07/16 02:57:57;;;;;;;;;;;;;;;22.59;56.22;98836.81;5093118;28;20454;-45
2023/07/16 03:00:23;;;;;;;;;;;;;;;22.82;55.56;98833.47;5092811;28;19912;-46
2023/07/16 03:02:51;;;;;;;;;;;;;;;22.98;54.96;98834.19;5091448;28;19912;-46
2023/07/16 03:05:17;;;;;;;;;;;;;;;23.09;54.54;98824.22;5091402;28;19912;-46
2023/07/16 03:07:42;;;;;;;;;;;;;;;22.91;53.90;98815.75;5091385;28;19912;-46
2023/07/16 03:10:08;;;;;;;;;;;;;;;22.96;53.57;98812.25;5092874;28;20405;-46
2023/07/16 03:12:33;;;;;;;;;;;;;;;23.11;52.72;98827.41;5092771;28;19920;-46
2023/07/16 03:14:58;;;;;;;;;;;;;;;23.03;52.52;98836.03;5092578;28;19912;-46
2023/07/16 03:17:24;;;;;;;;;;;;;;;22.79;52.49;98843.94;5092539;28;19974;-46
2023/07/16 03:19:49;;;;;;;;;;;;;;;22.65;52.82;98847.19;5091189;28;19912;-46
2023/07/16 03:22:15;;;;;;;;;;;;;;;22.48;53.00;98836.06;5092505;28;19919;-46
2023/07/16 03:24:40;;;;;;;;;;;;;;;22.41;53.20;98847.03;5092466;28;19912;-46
2023/07/16 03:27:06;;;;;;;;;;;;;;;22.32;53.16;98865.53;5091100;28;19913;-45
2023/07/16 03:29:32;;;;;;;;;;;;;;;22.24;53.14;98867.97;5092671;28;20337;-46
2023/07/16 03:31:58;;;;;;;;;;;;;;;22.12;53.31;98887.75;5090972;28;19981;-45
2023/07/16 03:34:23;;;;;;;;;;;;;;;22.05;53.35;98911.28;5091081;28;20389;-45
2023/07/16 03:36:49;;;;;;;;;;;;;;;22.17;54.20;98932.38;5092278;28;19916;-46
2023/07/16 03:39:14;;;;;;;;;;;;;;;22.43;53.50;98918.97;5091055;28;19919;-45
2023/07/16 03:41:40;;;;;;;;;;;;;;;22.38;53.84;98871.69;5092226;28;19916;-45
2023/07/16 03:44:05;;;;;;;;;;;;;;;21.79;57.43;98859.75;5092280;28;19913;-44
2023/07/16 03:46:30;;;;;;;;;;;;;;;20.48;62.63;98870.72;5091047;28;19912;-44
2023/07/16 03:48:56;;;;;;;;;;;;;;;19.61;67.45;98879.00;5090940;28;19912;-44
2023/07/16 03:51:21;;;;;;;;;;;;;;;19.10;72.95;98870.56;5092344;28;19912;-44
2023/07/16 03:53:47;;;;;;;;;;;;;;;18.80;77.55;98869.19;5096362;28;19912;-44
2023/07/16 03:56:12;;;;;;;;;;;;;;;18.53;80.74;98877.09;5095018;28;19912;-44
2023/07/16 03:58:37;;;;;;;;;;;;;;;18.38;83.88;98876.91;5094934;28;20278;-44
2023/07/16 04:01:03;;;;;;;;;;;;;;;18.24;86.34;98857.88;5096475;28;20289;-44
2023/07/16 04:03:28;;;;;;;;;;;;;;;18.22;88.93;98866.06;5094870;28;20377;-44
2023/07/16 04:06:04;;;;;;;;;;;;;;;18.29;91.05;98873.84;5094815;28;19956;-44
2023/07/16 04:08:29;;;;;;;;;;;;;;;18.36;92.42;98879.81;5094836;28;19912;-44
2023/07/16 04:10:55;;;;;;;;;;;;;;;18.47;93.77;98891.38;5095891;28;19912;-44
2023/07/16 04:13:20;;;;;;;;;;;;;;;18.52;94.25;98889.56;5094676;28;19964;-45
2023/07/16 04:15:45;;;;;;;;;;;;;;;18.75;95.19;98885.06;5095868;28;19916;-44
2023/07/16 04:18:11;;;;;;;;;;;;;;;18.86;94.95;98886.03;5095923;28;19912;-44
2023/07/16 04:20:36;;;;;;;;;;;;;;;18.91;95.31;98897.53;5094538;28;19912;-44
2023/07/16 04:23:02;;;;;;;;;;;;;;;18.95;95.36;98897.81;5095802;28;19912;-45
2023/07/16 04:25:27;;;;;;;;;;;;;;;19.27;96.96;98902.38;5094453;28;19922;-46
2023/07/16 04:27:53;;;;;;;;;;;;;;;19.72;97.01;98904.69;5095644;28;19912;-45
2023/07/16 04:30:18;;;;;;;;;;;;;;;20.09;95.54;98895.88;5094271;28;19916;-45
2023/07/16 04:32:43;;;;;;;;;;;;;;;20.27;94.70;98889.31;5095652;28;19912;-45
2023/07/16 04:35:09;;;;;;;;;;;;;;;20.48;94.38;98870.72;5095580;28;19912;-45
2023/07/16 04:37:34;;;;;;;;;;;;;;;20.64;92.91;98875.09;5093972;28;19993;-45
2023/07/16 04:40:00;;;;;;;;;;;;;;;20.52;91.83;98874.47;5095537;28;20350;-45
2023/07/16 04:42:25;;;;;;;;;;;;;;;20.60;93.25;98873.22;5095443;28;19912;-45
2023/07/16 04:44:50;;;;;;;;;;;;;;;20.97;93.74;98873.06;5095423;28;20292;-45
2023/07/16 04:47:16;;;;;;;;;;;;;;;21.15;92.74;98869.09;5095310;28;19923;-45
2023/07/16 04:49:41;;;;;;;;;;;;;;;21.24;92.89;98882.72;5094007;28;19912;-45
2023/07/16 04:52:07;;;;;;;;;;;;;;;21.37;92.93;98886.72;5095196;28;19912;-45
2023/07/16 04:54:37;;;;;;;;;;;;;;;21.38;91.38;98885.66;5095197;28;19912;-45
2023/07/16 04:57:02;;;;;;;;;;;;;;;21.43;92.12;98883.84;5095404;28;19956;-45
2023/07/16 04:59:27;;;;;;;;;;;;;;;21.66;91.46;98889.69;5093852;28;20535;-45
2023/07/16 05:01:53;;;;;;;;;;;;;;;21.51;88.01;98891.31;5095333;28;19912;-45
2023/07/16 05:04:18;;;;;;;;;;;;;;;21.34;88.29;98886.19;5094186;28;20314;-45
2023/07/16 05:06:44;;;;;;;;;;;;;;;21.58;90.01;98882.22;5093797;28;19942;-45
2023/07/16 05:09:09;;;;;;;;;;;;;;;21.96;90.49;98880.06;5093693;28;20006;-45
2023/07/16 05:11:35;;;;;;;;;;;;;;;22.26;89.25;98890.69;5094794;28;19920;-45
2023/07/16 05:14:00;;;;;;;;;;;;;;;22.43;88.02;98879.66;5093602;28;19912;-45
2023/07/16 05:16:25;;;;;;;;;;;;;;;22.47;87.08;98882.59;5094807;28;19912;-45
2023/07/16 05:18:51;;;;;;;;;;;;;;;22.50;87.18;98888.22;5094793;28;20420;-45
2023/07/16 05:21:16;;;;;;;;;;;;;;;22.49;87.77;98891.16;5094655;28;20038;-45
2023/07/16 05:23:42;;;;;;;;;;;;;;;22.73;88.40;98880.59;5094975;28;19912;-45
2023/07/16 05:26:07;;;;;;;;;;;;;;;22.70;86.29;98884.63;5094892;28;20377;-45
2023/07/16 05:28:33;;;;;;;;;;;;;;;22.70;84.17;98889.19;5094835;28;19912;-45
2023/07/16 05:31:02;;;;;;;;;;;;;;;22.50;84.04;98890.88;5093155;28;19916;-45
2023/07/16 05:33:27;;;;;;;;;;;;;;;22.46;84.73;98884.47;5093220;28;19919;-45
2023/07/16 05:35:53;;;;;;;;;;;;;;;22.54;84.56;98889.25;5094464;28;19916;-45
2023/07/16 05:38:18;;;;;;;;;;;;;;;22.57;84.90;98892.47;5053150;28;20301;-45
2023/07/16 05:40:45;;;;;;;;;;;;;;;22.63;84.04;98884.13;5052792;28;19920;-45
2023/07/16 05:43:11;;;;;;;;;;;;;;;22.86;85.06;98877.34;5052737;28;19927;-45
2023/07/16 05:45:36;;;;;;;;;;;;;;;23.15;85.30;98878.53;5052955;28;19963;-45
2023/07/16 05:48:03;;;;;;;;;;;;;;;23.22;86.09;98877.16;5054007;28;19920;-45
2023/07/16 05:50:29;;;;;;;;;;;;;;;23.26;86.55;98882.72;5054013;28;20293;-45
2023/07/16 05:52:54;;;;;;;;;;;;;;;23.25;86.21;98887.28;5054180;28;19919;-45
2023/07/16 05:55:19;;;;;;;;;;;;;;;23.33;85.65;98899.28;5052664;28;19938;-45
2023/07/16 05:57:45;;;;;;;;;;;;;;;23.09;83.94;98896.50;5053776;28;20360;-45
2023/07/16 06:00:10;;;;;;;;;;;;;;;22.94;85.22;98897.38;5053720;28;19924;-45
2023/07/16 06:02:36;;;;;;;;;;;;;;;22.79;85.29;98898.22;5053671;28;19924;-45
2023/07/16 06:05:01;;;;;;;;;;;;;;;22.96;85.54;98899.75;5053623;28;20050;-45
2023/07/16 06:07:27;;;;;;;;;;;;;;;23.19;84.37;98903.69;5052301;28;19913;-45
2023/07/16 06:09:52;;;;;;;;;;;;;;;23.30;83.27;98916.72;5053557;28;19920;-46
2023/07/16 06:12:18;;;;;;;;;;;;;;;23.23;83.91;98908.19;5052118;28;19925;-46
2023/07/16 06:14:43;;;;;;;;;;;;;;;23.38;86.66;98911.84;5053490;28;19913;-46
2023/07/16 06:17:08;;;;;;;;;;;;;;;23.85;87.54;98903.19;5053383;28;19916;-45
2023/07/16 06:19:34;;;;;;;;;;;;;;;24.02;86.54;98904.63;5053619;28;20012;-45
2023/07/16 06:21:59;;;;;;;;;;;;;;;23.98;83.10;98895.56;5052278;28;20370;-45
2023/07/16 06:24:25;;;;;;;;;;;;;;;23.91;80.39;98896.69;5053165;28;20386;-45
2023/07/16 06:26:50;;;;;;;;;;;;;;;23.96;79.27;98890.47;5053235;28;19919;-45
2023/07/16 06:29:16;;;;;;;;;;;;;;;24.23;80.32;98886.47;5053193;28;20046;-45
2023/07/16 06:31:42;;;;;;;;;;;;;;;24.67;79.76;98886.22;5053032;28;19912;-45
2023/07/16 06:34:07;;;;;;;;;;;;;;;25.11;77.77;98895.00;5051809;28;19917;-45
2023/07/16 06:36:33;;;;;;;;;;;;;;;25.24;73.80;98891.63;5063748;28;19916;-45
2023/07/16 06:39:00;;;;;;;;;;;;;;;25.12;69.49;98901.97;5108992;28;19953;-45
2023/07/16 06:41:25;;;;;;;;;;;;;;;25.38;69.46;98907.81;5093113;28;19920;-45
2023/07/16 06:43:51;;;;;;;;;;;;;;;25.56;67.15;98911.56;5091798;28;19968;-45
2023/07/16 06:46:16;;;;;;;;;;;;;;;25.89;67.26;98906.94;5091795;28;19912;-46
2023/07/16 06:48:41;;;;;;;;;;;;;;;26.35;64.24;98908.03;5092955;28;19912;-46
2023/07/16 06:51:07;;;;;;;;;;;;;;;26.77;62.03;98903.44;5091557;28;19916;-45
2023/07/16 06:53:33;;;;;;;;;;;;;;;27.39;60.54;98891.31;5092968;28;19919;-46
2023/07/16 06:55:58;;;;;;;;;;;;;;;27.56;58.90;98888.72;5091529;28;20327;-46
2023/07/16 06:58:33;;;;;;;;;;;;;;;27.86;58.12;98894.44;5091515;28;19919;-46
2023/07/16 07:00:58;;;;;;;;;;;;;;;27.87;54.68;98891.47;5092885;28;20003;-46
2023/07/16 07:03:24;;;;;;;;;;;;;;;27.83;54.03;98898.56;5092721;28;20022;-46
2023/07/16 07:05:49;;;;;;;;;;;;;;;28.14;54.09;98886.19;5092764;28;19912;-46
2023/07/16 07:08:14;;;;;;;;;;;;;;;28.04;53.47;98889.94;5092767;28;20293;-46
2023/07/16 07:10:40;;;;;;;;;;;;;;;27.89;52.74;98900.03;5092558;28;20006;-46
2023/07/16 07:13:06;;;;;;;;;;;;;;;28.00;52.63;98891.69;5092895;28;19935;-46
2023/07/16 07:15:31;;;;;;;;;;;;;;;28.02;52.37;98886.78;5092610;28;20373;-46
2023/07/16 07:17:57;;;;;;;;;;;;;;;28.04;52.06;98885.34;5091338;28;20381;-46
2023/07/16 07:20:22;;;;;;;;;;;;;;;28.08;51.84;98882.81;5092514;28;20269;-46
2023/07/16 07:22:48;;;;;;;;;;;;;;;28.32;49.29;98889.75;5092519;28;20312;-46
2023/07/16 07:25:13;;;;;;;;;;;;;;;28.49;49.72;98887.88;5091222;28;20301;-46
2023/07/16 07:27:38;;;;;;;;;;;;;;;28.62;50.54;98898.91;5092012;28;19923;-46
2023/07/16 07:30:04;;;;;;;;;;;;;;;28.72;50.33;98893.19;5092436;28;19972;-46
2023/07/16 07:32:30;;;;;;;;;;;;;;;28.65;48.26;98903.66;5091026;28;20359;-46
2023/07/16 07:34:55;;;;;;;;;;;;;;;28.45;48.23;98895.03;5091037;28;20335;-46
2023/07/16 07:37:20;;;;;;;;;;;;;;;28.22;47.12;98898.91;5090769;28;19916;-46
2023/07/16 07:39:51;;;;;;;;;;;;;;;28.20;48.42;98901.13;5092320;28;19912;-45
2023/07/16 07:42:16;;;;;;;;;;;;;;;28.29;48.99;98899.25;5092339;28;19934;-45
2023/07/16 07:44:41;;;;;;;;;;;;;;;28.59;48.84;98902.22;5092215;28;20319;-45
2023/07/16 07:47:08;;;;;;;;;;;;;;;28.73;48.86;98896.69;5090944;28;19919;-46
2023/07/16 07:49:34;;;;;;;;;;;;;;;28.82;46.78;98898.28;5092189;28;19961;-46
2023/07/16 07:51:59;;;;;;;;;;;;;;;29.12;46.36;98897.69;5092081;28;19911;-46
2023/07/16 07:54:25;;;;;;;;;;;;;;;29.53;45.83;98897.19;5092411;28;19916;-46
2023/07/16 07:56:50;;;;;;;;;;;;;;;29.86;46.49;98897.47;5092159;28;19925;-46
2023/07/16 07:59:16;;;;;;;;;;;;;;;30.20;43.48;98903.06;5092122;28;19912;-46
2023/07/16 08:01:41;;;;;;;;;;;;;;;30.49;41.37;98907.72;5090812;28;20009;-46
2023/07/16 08:04:07;;;;;;;;;;;;;;;30.32;41.62;98905.88;5090773;28;20015;-46
2023/07/16 08:06:32;;;;;;;;;;;;;;;29.77;42.72;98904.00;5090699;28;20049;-46
2023/07/16 08:08:57;;;;;;;;;;;;;;;29.51;43.19;98912.16;5090744;28;20019;-46
2023/07/16 08:11:23;;;;;;;;;;;;;;;29.47;44.16;98912.78;5090606;28;19995;-46
2023/07/16 08:13:49;;;;;;;;;;;;;;;29.32;45.17;98909.78;5092025;28;20421;-46
2023/07/16 08:16:14;;;;;;;;;;;;;;;29.24;43.14;98905.97;5090644;28;19912;-45
2023/07/16 08:18:40;;;;;;;;;;;;;;;29.32;40.98;98913.28;5090698;28;20385;-45
2023/07/16 08:21:05;;;;;;;;;;;;;;;29.14;41.54;98917.91;5091915;28;19912;-46
2023/07/16 08:23:31;;;;;;;;;;;;;;;28.81;40.96;98915.59;5092136;28;20382;-46
2023/07/16 08:25:56;;;;;;;;;;;;;;;28.56;40.24;98919.84;5091846;28;19918;-46
2023/07/16 08:28:21;;;;;;;;;;;;;;;28.41;39.83;98926.47;5090541;28;20374;-46
2023/07/16 08:30:48;;;;;;;;;;;;;;;28.49;39.35;98920.28;5090438;28;19918;-46
2023/07/16 08:33:14;;;;;;;;;;;;;;;28.55;39.17;98917.47;5090487;28;20336;-45
2023/07/16 08:35:40;;;;;;;;;;;;;;;28.66;38.88;98921.47;5091782;28;19916;-45
2023/07/16 08:38:09;;;;;;;;;;;;;;;28.76;38.07;98907.66;5091475;28;19969;-46
2023/07/16 08:40:35;;;;;;;;;;;;;;;29.09;37.99;98912.63;5095293;28;19912;-46
2023/07/16 08:43:02;;;;;;;;;;;;;;;29.30;37.73;98903.88;5094119;28;19934;-46
2023/07/16 08:45:29;;;;;;;;;;;;;;;29.46;37.09;98902.31;5095414;28;19912;-46
2023/07/16 08:47:55;;;;;;;;;;;;;;;29.66;36.69;98903.50;5094020;28;19966;-46
2023/07/16 08:50:21;;;;;;;;;;;;;;;30.21;36.29;98907.38;5093992;28;19916;-46
2023/07/16 08:52:47;;;;;;;;;;;;;;;31.25;34.47;98901.31;5094012;28;19990;-46
2023/07/16 08:55:12;;;;;;;;;;;;;;;32.34;32.92;98890.25;5093913;28;20008;-47
2023/07/16 08:57:39;;;;;;;;;;;;;;;33.77;31.94;98888.16;5093928;28;19912;-46
2023/07/16 09:00:06;;;;;;;;;;;;;;;35.40;30.21;98885.94;5093843;28;19911;-46
2023/07/16 09:02:31;;;;;;;;;;;;;;;36.25;29.56;98887.78;5093903;28;20002;-46
2023/07/16 09:04:57;;;;;;;;;;;;;;;35.65;29.52;98888.31;5076921;28;19950;-46
2023/07/16 09:07:22;;;;;;;;;;;;;;;35.61;29.35;98890.19;5094955;28;19912;-47
2023/07/16 09:09:55;;;;;;;;;;;;;;;36.98;28.27;98874.72;5093669;28;19920;-47
2023/07/16 09:12:23;;;;;;;;;;;;;;;37.88;25.89;98880.38;5094823;28;20003;-47
2023/07/16 09:14:48;;;;;;;;;;;;;;;38.52;24.95;98878.13;5093585;28;19923;-47
2023/07/16 09:17:19;;;;;;;;;;;;;;;39.13;24.85;98881.13;5093469;28;19912;-47
2023/07/16 09:19:45;;;;;;;;;;;;;;;39.61;23.54;98869.09;5094803;28;19919;-47
2023/07/16 09:22:10;;;;;;;;;;;;;;;39.86;23.11;98871.84;5076500;28;19923;-47
2023/07/16 09:24:36;;;;;;;;;;;;;;;40.19;22.56;98875.38;5094710;28;20301;-47
2023/07/16 09:27:01;;;;;;;;;;;;;;;40.66;22.17;98867.78;5094603;28;19912;-47
2023/07/16 09:29:27;;;;;;;;;;;;;;;40.93;22.09;98865.34;5093318;28;19919;-47
2023/07/16 09:32:00;;;;;;;;;;;;;;;41.19;20.77;98859.72;5094429;28;19965;-47
2023/07/16 09:34:28;;;;;;;;;;;;;;;40.87;20.70;98872.47;5093211;28;19919;-48
2023/07/16 09:36:54;;;;;;;;;;;;;;;40.98;20.33;98866.91;5092946;28;20290;-47
2023/07/16 09:39:19;;;;;;;;;;;;;;;40.97;20.73;98870.84;5093097;28;19918;-47
2023/07/16 09:41:47;;;;;;;;;;;;;;;40.93;20.64;98861.78;5094241;28;20400;-47
2023/07/16 09:44:13;;;;;;;;;;;;;;;41.48;19.79;98866.63;5094330;28;19926;-47
2023/07/16 09:46:39;;;;;;;;;;;;;;;42.03;19.68;98867.00;5094215;28;19926;-47
2023/07/16 09:49:04;;;;;;;;;;;;;;;41.80;19.14;98849.06;5092806;28;19912;-46
2023/07/16 09:51:30;;;;;;;;;;;;;;;41.64;19.04;98849.59;5093833;28;19912;-47
2023/07/16 09:53:55;;;;;;;;;;;;;;;41.69;19.01;98853.88;5094134;28;19966;-47
2023/07/16 09:56:21;;;;;;;;;;;;;;;41.80;18.84;98842.78;5094006;28;19919;-47
2023/07/16 09:58:46;;;;;;;;;;;;;;;42.05;18.29;98843.34;5094053;28;19912;-47
2023/07/16 10:01:12;;;;;;;;;;;;;;;42.22;18.20;98836.09;5092712;28;19916;-47
2023/07/16 10:03:48;;;;;;;;;;;;;;;41.80;19.12;98840.81;5094019;28;19956;-47
2023/07/16 10:06:14;;;;;;;;;;;;;;;41.64;18.17;98846.84;5093990;28;19919;-46
2023/07/16 10:08:39;;;;;;;;;;;;;;;41.85;18.63;98843.09;5093852;28;19912;-47
2023/07/16 10:11:15;;;;;;;;;;;;;;;42.06;18.47;98836.63;5093701;28;19919;-48
2023/07/16 10:13:40;;;;;;;;;;;;;;;42.25;18.81;98835.25;5092475;28;19919;-48
2023/07/16 10:16:08;;;;;;;;;;;;;;;42.81;18.48;98836.97;5093667;28;19912;-47
2023/07/16 10:18:34;;;;;;;;;;;;;;;43.00;17.77;98833.56;5093677;28;19964;-47
2023/07/16 10:21:01;;;;;;;;;;;;;;;42.63;17.41;98834.44;5093576;28;19982;-47
2023/07/16 10:23:36;;;;;;;;;;;;;;;41.92;17.79;98828.47;5092219;28;20007;-47
2023/07/16 10:26:11;;;;;;;;;;;;;;;41.52;17.80;98841.78;5093524;28;19912;-48
2023/07/16 10:28:37;;;;;;;;;;;;;;;41.38;18.15;98831.66;5093493;28;20351;-47
2023/07/16 10:31:02;;;;;;;;;;;;;;;40.94;18.46;98835.84;5093326;28;19912;-47
2023/07/16 10:33:28;;;;;;;;;;;;;;;39.87;19.34;98839.69;5093352;28;19912;-47
2023/07/16 10:35:56;;;;;;;;;;;;;;;38.98;20.41;98835.63;5093196;28;19919;-47
2023/07/16 10:38:21;;;;;;;;;;;;;;;39.34;20.47;98824.69;5091940;28;19916;-47
2023/07/16 10:40:47;;;;;;;;;;;;;;;39.99;19.72;98824.75;5093219;28;20293;-47
2023/07/16 10:43:12;;;;;;;;;;;;;;;41.03;18.79;98819.69;5093142;28;20381;-47
2023/07/16 10:45:38;;;;;;;;;;;;;;;41.03;18.90;98825.19;5093098;28;19919;-47
2023/07/16 10:48:04;;;;;;;;;;;;;;;40.16;18.95;98832.16;5093092;28;20014;-47
2023/07/16 10:50:31;;;;;;;;;;;;;;;39.30;19.47;98826.63;5093039;28;19916;-47
2023/07/16 10:52:57;;;;;;;;;;;;;;;39.02;20.07;98824.63;5093035;28;19935;-47
2023/07/16 10:55:23;;;;;;;;;;;;;;;39.06;19.98;98830.91;5092927;28;20124;-47
2023/07/16 10:57:49;;;;;;;;;;;;;;;39.09;20.71;98824.66;5093185;28;19924;-47
2023/07/16 11:00:15;;;;;;;;;;;;;;;39.51;20.37;98812.97;5092844;28;19919;-47
2023/07/16 11:02:40;;;;;;;;;;;;;;;39.75;20.17;98816.88;5090969;28;19912;-46
2023/07/16 11:05:09;;;;;;;;;;;;;;;40.11;19.70;98807.84;5092803;28;20339;-47
2023/07/16 11:07:34;;;;;;;;;;;;;;;40.64;19.48;98809.63;5092759;28;19911;-48
2023/07/16 11:10:02;;;;;;;;;;;;;;;41.72;18.81;98801.50;5092689;28;20010;-47
2023/07/16 11:12:28;;;;;;;;;;;;;;;41.94;18.73;98798.53;5092668;28;19984;-47
2023/07/16 11:14:54;;;;;;;;;;;;;;;41.87;18.74;98798.59;5092659;28;20385;-47
2023/07/16 11:17:22;;;;;;;;;;;;;;;41.64;19.15;98794.47;5092598;28;19912;-47
2023/07/16 11:19:49;;;;;;;;;;;;;;;41.77;19.32;98788.47;5092495;28;20011;-47
2023/07/16 11:22:15;;;;;;;;;;;;;;;41.96;18.73;98784.31;5092548;28;19912;-47
2023/07/16 11:24:41;;;;;;;;;;;;;;;42.58;18.17;98788.78;5092499;28;19916;-47
2023/07/16 11:27:16;;;;;;;;;;;;;;;42.51;18.10;98788.88;5092571;28;19912;-50
2023/07/16 11:29:52;;;;;;;;;;;;;;;41.45;18.45;98792.25;5091209;28;19912;-50
2023/07/16 11:32:28;;;;;;;;;;;;;;;41.06;18.94;98780.31;5091304;28;19912;-50
2023/07/16 11:34:56;;;;;;;;;;;;;;;40.57;19.31;98778.59;5091172;28;19960;-50
2023/07/16 11:37:23;;;;;;;;;;;;;;;40.93;19.22;98765.44;5092087;28;19919;-47
2023/07/16 11:39:49;;;;;;;;;;;;;;;40.78;19.20;98770.28;5091178;28;20053;-47
2023/07/16 11:42:18;;;;;;;;;;;;;;;40.86;19.37;98766.28;5092180;28;19969;-46
2023/07/16 11:44:48;;;;;;;;;;;;;;;40.86;19.11;98765.50;5090991;28;20385;-48
2023/07/16 11:47:13;;;;;;;;;;;;;;;40.83;19.35;98766.31;5092251;28;19919;-47
2023/07/16 11:49:39;;;;;;;;;;;;;;;40.62;19.13;98767.19;5090912;28;19920;-47
2023/07/16 11:52:04;;;;;;;;;;;;;;;40.29;19.63;98767.31;5092130;28;20274;-47
2023/07/16 11:54:30;;;;;;;;;;;;;;;40.12;19.83;98773.66;5092184;28;19919;-47
2023/07/16 11:56:55;;;;;;;;;;;;;;;40.01;20.18;98770.94;5090877;28;20030;-47
2023/07/16 11:59:21;;;;;;;;;;;;;;;39.80;20.32;98757.97;5092136;28;20380;-48
2023/07/16 12:01:48;;;;;;;;;;;;;;;39.90;20.34;98761.91;5092024;28;20297;-47
2023/07/16 12:04:13;;;;;;;;;;;;;;;39.76;20.35;98762.69;5092118;28;20339;-47
2023/07/16 12:06:39;;;;;;;;;;;;;;;39.63;20.70;98750.56;5092067;28;20400;-47
2023/07/16 12:09:04;;;;;;;;;;;;;;;39.31;20.64;98754.84;5090748;28;20014;-46
2023/07/16 12:11:30;;;;;;;;;;;;;;;38.89;21.02;98756.34;5090674;28;19911;-47
2023/07/16 12:13:55;;;;;;;;;;;;;;;38.59;21.03;98747.66;5094777;28;19935;-47
2023/07/16 12:16:21;;;;;;;;;;;;;;;38.49;20.96;98758.16;5095927;28;19922;-47
2023/07/16 12:18:46;;;;;;;;;;;;;;;38.47;21.21;98748.78;5077784;28;19912;-47
2023/07/16 12:21:12;;;;;;;;;;;;;;;38.81;20.86;98751.25;5095896;28;19919;-47
2023/07/16 12:23:37;;;;;;;;;;;;;;;38.85;20.69;98743.81;5094558;28;20343;-47
2023/07/16 12:26:03;;;;;;;;;;;;;;;39.00;20.61;98748.19;5095825;28;20282;-47
2023/07/16 12:28:28;;;;;;;;;;;;;;;39.04;20.52;98742.69;5094778;28;20400;-47
2023/07/16 12:30:53;;;;;;;;;;;;;;;39.02;20.51;98739.53;5095678;28;19916;-48
2023/07/16 12:33:19;;;;;;;;;;;;;;;39.12;20.43;98744.25;5094288;28;19923;-47
2023/07/16 12:35:44;;;;;;;;;;;;;;;39.13;20.42;98737.59;5094326;28;19912;-48
2023/07/16 12:38:10;;;;;;;;;;;;;;;39.03;20.39;98736.41;5095389;28;20552;-47
2023/07/16 12:40:40;;;;;;;;;;;;;;;38.44;20.88;98730.34;5095543;28;19912;-47
2023/07/16 12:43:06;;;;;;;;;;;;;;;38.13;21.74;98727.91;5095714;28;19934;-47